sensor_id;sensor_type;location;lat;lon;timestamp;temperature;humidity
52509;DHT22;38420;53.150;6.370;2022-09-16T00:00:35;11.20;99.90
52509;DHT22;38420;53.150;6.370;2022-09-16T00:03:01;11.10;99.90
52509;DHT22;38420;53.150;6.370;2022-09-16T00:05:27;11.40;99.90
52509;DHT22;38420;53.150;6.370;2022-09-16T00:07:53;11.10;99.90
52509;DHT22;38420;53.150;6.370;2022-09-16T00:10:20;11.20;99.90
52509;DHT22;38420;53.150;6.370;2022-09-16T00:12:46;11.40;99.90
52509;DHT22;38420;53.150;6.370;2022-09-16T00:15:12;11.40;99.90
52509;DHT22;38420;53.150;6.370;2022-09-16T00:17:38;11.20;99.90
52509;DHT22;38420;53.150;6.370;2022-09-16T00:20:05;11.40;99.90
52509;DHT22;38420;53.150;6.370;2022-09-16T00:22:30;11.20;99.90
52509;DHT22;38420;53.150;6.370;2022-09-16T00:24:56;11.20;99.90
52509;DHT22;38420;53.150;6.370;2022-09-16T00:27:21;11.30;99.90
52509;DHT22;38420;53.150;6.370;2022-09-16T00:29:47;11.50;99.90
52509;DHT22;38420;53.150;6.370;2022-09-16T00:32:12;11.20;99.90
52509;DHT22;38420;53.150;6.370;2022-09-16T00:34:38;11.20;99.90
52509;DHT22;38420;53.150;6.370;2022-09-16T00:37:04;11.20;99.90
52509;DHT22;38420;53.150;6.370;2022-09-16T00:39:33;11.20;99.90
52509;DHT22;38420;53.150;6.370;2022-09-16T00:42:00;11.10;99.90
52509;DHT22;38420;53.150;6.370;2022-09-16T00:45:01;11.20;99.90
52509;DHT22;38420;53.150;6.370;2022-09-16T00:48:06;11.20;99.90
52509;DHT22;38420;53.150;6.370;2022-09-16T00:50:53;11.40;99.90
52509;DHT22;38420;53.150;6.370;2022-09-16T00:53:24;11.40;99.90
52509;DHT22;38420;53.150;6.370;2022-09-16T00:55:53;11.20;99.90
52509;DHT22;38420;53.150;6.370;2022-09-16T01:01:08;11.00;99.90
52509;DHT22;38420;53.150;6.370;2022-09-16T01:03:47;11.40;99.90
52509;DHT22;38420;53.150;6.370;2022-09-16T01:06:14;11.00;99.90
52509;DHT22;38420;53.150;6.370;2022-09-16T01:08:44;11.30;99.90
52509;DHT22;38420;53.150;6.370;2022-09-16T01:11:10;11.10;99.90
52509;DHT22;38420;53.150;6.370;2022-09-16T01:13:37;11.30;99.90
52509;DHT22;38420;53.150;6.370;2022-09-16T01:16:14;11.30;99.90
52509;DHT22;38420;53.150;6.370;2022-09-16T01:24:18;11.00;99.90
52509;DHT22;38420;53.150;6.370;2022-09-16T01:27:04;11.00;99.90
52509;DHT22;38420;53.150;6.370;2022-09-16T01:33:05;10.90;99.90
52509;DHT22;38420;53.150;6.370;2022-09-16T01:35:47;10.90;99.90
52509;DHT22;38420;53.150;6.370;2022-09-16T01:38:30;11.10;99.90
52509;DHT22;38420;53.150;6.370;2022-09-16T01:41:09;10.80;99.90
52509;DHT22;38420;53.150;6.370;2022-09-16T01:44:06;10.70;99.90
52509;DHT22;38420;53.150;6.370;2022-09-16T01:52:34;10.80;99.90
52509;DHT22;38420;53.150;6.370;2022-09-16T01:55:05;11.00;99.90
52509;DHT22;38420;53.150;6.370;2022-09-16T02:00:13;11.00;99.90
52509;DHT22;38420;53.150;6.370;2022-09-16T02:05:10;10.90;99.90
52509;DHT22;38420;53.150;6.370;2022-09-16T02:07:40;10.60;99.90
52509;DHT22;38420;53.150;6.370;2022-09-16T02:10:29;10.60;99.90
52509;DHT22;38420;53.150;6.370;2022-09-16T02:13:04;10.60;99.90
52509;DHT22;38420;53.150;6.370;2022-09-16T02:15:32;10.90;99.90
52509;DHT22;38420;53.150;6.370;2022-09-16T02:18:03;10.80;99.90
52509;DHT22;38420;53.150;6.370;2022-09-16T02:20:31;10.90;99.90
52509;DHT22;38420;53.150;6.370;2022-09-16T02:23:07;11.00;99.90
52509;DHT22;38420;53.150;6.370;2022-09-16T02:25:37;10.80;99.90
52509;DHT22;38420;53.150;6.370;2022-09-16T02:28:07;11.10;99.90
52509;DHT22;38420;53.150;6.370;2022-09-16T02:30:40;10.80;99.90
52509;DHT22;38420;53.150;6.370;2022-09-16T02:33:08;11.10;99.90
52509;DHT22;38420;53.150;6.370;2022-09-16T02:35:35;11.00;99.90
52509;DHT22;38420;53.150;6.370;2022-09-16T02:38:09;11.00;99.90
52509;DHT22;38420;53.150;6.370;2022-09-16T02:40:41;10.90;99.90
52509;DHT22;38420;53.150;6.370;2022-09-16T02:43:09;11.10;99.90
52509;DHT22;38420;53.150;6.370;2022-09-16T02:51:05;11.10;99.90
52509;DHT22;38420;53.150;6.370;2022-09-16T02:53:47;11.00;99.90
52509;DHT22;38420;53.150;6.370;2022-09-16T02:56:33;10.90;99.90
52509;DHT22;38420;53.150;6.370;2022-09-16T02:59:00;10.90;99.90
52509;DHT22;38420;53.150;6.370;2022-09-16T03:01:29;10.80;99.90
52509;DHT22;38420;53.150;6.370;2022-09-16T03:03:56;10.90;99.90
52509;DHT22;38420;53.150;6.370;2022-09-16T03:06:26;11.00;99.90
52509;DHT22;38420;53.150;6.370;2022-09-16T03:08:54;10.70;99.90
52509;DHT22;38420;53.150;6.370;2022-09-16T03:17:06;10.60;99.90
52509;DHT22;38420;53.150;6.370;2022-09-16T03:22:55;10.40;99.90
52509;DHT22;38420;53.150;6.370;2022-09-16T03:31:07;10.60;99.90
52509;DHT22;38420;53.150;6.370;2022-09-16T03:34:04;10.40;99.90
52509;DHT22;38420;53.150;6.370;2022-09-16T03:36:35;10.30;99.90
52509;DHT22;38420;53.150;6.370;2022-09-16T03:39:02;10.50;99.90
52509;DHT22;38420;53.150;6.370;2022-09-16T03:41:29;10.60;99.90
52509;DHT22;38420;53.150;6.370;2022-09-16T03:43:57;10.40;99.90
52509;DHT22;38420;53.150;6.370;2022-09-16T03:46:24;10.60;99.90
52509;DHT22;38420;53.150;6.370;2022-09-16T03:48:51;10.30;99.90
52509;DHT22;38420;53.150;6.370;2022-09-16T03:51:16;10.50;99.90
52509;DHT22;38420;53.150;6.370;2022-09-16T03:53:42;10.30;99.90
52509;DHT22;38420;53.150;6.370;2022-09-16T03:56:08;10.40;99.90
52509;DHT22;38420;53.150;6.370;2022-09-16T03:58:33;10.50;99.90
52509;DHT22;38420;53.150;6.370;2022-09-16T04:00:59;10.60;99.90
52509;DHT22;38420;53.150;6.370;2022-09-16T04:03:24;10.30;99.90
52509;DHT22;38420;53.150;6.370;2022-09-16T04:05:54;10.40;99.90
52509;DHT22;38420;53.150;6.370;2022-09-16T04:08:20;10.40;99.90
52509;DHT22;38420;53.150;6.370;2022-09-16T04:10:54;10.20;99.90
52509;DHT22;38420;53.150;6.370;2022-09-16T04:13:20;10.30;99.90
52509;DHT22;38420;53.150;6.370;2022-09-16T04:15:46;10.20;99.90
52509;DHT22;38420;53.150;6.370;2022-09-16T04:18:12;10.40;99.90
52509;DHT22;38420;53.150;6.370;2022-09-16T04:20:37;10.30;99.90
52509;DHT22;38420;53.150;6.370;2022-09-16T04:23:03;10.20;99.90
52509;DHT22;38420;53.150;6.370;2022-09-16T04:25:29;10.20;99.90
52509;DHT22;38420;53.150;6.370;2022-09-16T04:27:54;10.20;99.90
52509;DHT22;38420;53.150;6.370;2022-09-16T04:30:20;10.20;99.90
52509;DHT22;38420;53.150;6.370;2022-09-16T04:32:45;10.50;99.90
52509;DHT22;38420;53.150;6.370;2022-09-16T04:35:11;10.20;99.90
52509;DHT22;38420;53.150;6.370;2022-09-16T04:37:37;10.20;99.90
52509;DHT22;38420;53.150;6.370;2022-09-16T04:40:02;10.40;99.90
52509;DHT22;38420;53.150;6.370;2022-09-16T04:42:28;10.40;99.90
52509;DHT22;38420;53.150;6.370;2022-09-16T04:44:54;10.40;99.90
52509;DHT22;38420;53.150;6.370;2022-09-16T04:47:19;10.20;99.90
52509;DHT22;38420;53.150;6.370;2022-09-16T04:49:45;10.40;99.90
52509;DHT22;38420;53.150;6.370;2022-09-16T04:52:10;10.40;99.90
52509;DHT22;38420;53.150;6.370;2022-09-16T04:54:36;10.40;99.90
52509;DHT22;38420;53.150;6.370;2022-09-16T04:57:02;10.40;99.90
52509;DHT22;38420;53.150;6.370;2022-09-16T04:59:27;10.20;99.90
52509;DHT22;38420;53.150;6.370;2022-09-16T05:01:53;10.20;99.90
52509;DHT22;38420;53.150;6.370;2022-09-16T05:04:18;10.20;99.90
52509;DHT22;38420;53.150;6.370;2022-09-16T05:06:44;10.10;99.90
52509;DHT22;38420;53.150;6.370;2022-09-16T05:09:10;10.20;99.90
52509;DHT22;38420;53.150;6.370;2022-09-16T05:11:38;10.00;99.90
52509;DHT22;38420;53.150;6.370;2022-09-16T05:14:06;10.20;99.90
52509;DHT22;38420;53.150;6.370;2022-09-16T05:16:32;10.10;99.90
52509;DHT22;38420;53.150;6.370;2022-09-16T05:18:59;9.90;99.90
52509;DHT22;38420;53.150;6.370;2022-09-16T05:21:26;9.90;99.90
52509;DHT22;38420;53.150;6.370;2022-09-16T05:23:53;10.10;99.90
52509;DHT22;38420;53.150;6.370;2022-09-16T05:26:24;10.20;99.90
52509;DHT22;38420;53.150;6.370;2022-09-16T05:28:51;10.00;99.90
52509;DHT22;38420;53.150;6.370;2022-09-16T05:33:54;10.20;99.90
52509;DHT22;38420;53.150;6.370;2022-09-16T05:36:21;10.30;99.90
52509;DHT22;38420;53.150;6.370;2022-09-16T05:38:47;10.30;99.90
52509;DHT22;38420;53.150;6.370;2022-09-16T05:41:13;10.60;99.90
52509;DHT22;38420;53.150;6.370;2022-09-16T05:43:39;10.50;99.90
52509;DHT22;38420;53.150;6.370;2022-09-16T05:46:05;10.60;99.90
52509;DHT22;38420;53.150;6.370;2022-09-16T05:48:31;10.60;99.90
52509;DHT22;38420;53.150;6.370;2022-09-16T05:51:02;10.70;99.90
52509;DHT22;38420;53.150;6.370;2022-09-16T05:53:29;10.70;99.90
52509;DHT22;38420;53.150;6.370;2022-09-16T05:56:04;10.90;99.90
52509;DHT22;38420;53.150;6.370;2022-09-16T05:58:31;10.90;99.90
52509;DHT22;38420;53.150;6.370;2022-09-16T06:00:58;10.70;99.90
52509;DHT22;38420;53.150;6.370;2022-09-16T06:03:24;10.80;99.90
52509;DHT22;38420;53.150;6.370;2022-09-16T06:05:51;10.80;99.90
52509;DHT22;38420;53.150;6.370;2022-09-16T06:08:17;10.90;99.90
52509;DHT22;38420;53.150;6.370;2022-09-16T06:10:42;11.00;99.90
52509;DHT22;38420;53.150;6.370;2022-09-16T06:13:08;10.90;99.90
52509;DHT22;38420;53.150;6.370;2022-09-16T06:15:34;10.80;99.90
52509;DHT22;38420;53.150;6.370;2022-09-16T06:18:01;10.90;99.90
52509;DHT22;38420;53.150;6.370;2022-09-16T06:20:27;10.90;99.90
52509;DHT22;38420;53.150;6.370;2022-09-16T06:22:52;10.80;99.90
52509;DHT22;38420;53.150;6.370;2022-09-16T06:25:18;10.80;99.90
52509;DHT22;38420;53.150;6.370;2022-09-16T06:27:43;10.90;99.90
52509;DHT22;38420;53.150;6.370;2022-09-16T06:30:09;11.00;99.90
52509;DHT22;38420;53.150;6.370;2022-09-16T06:32:36;10.80;99.90
52509;DHT22;38420;53.150;6.370;2022-09-16T06:35:02;11.10;99.90
52509;DHT22;38420;53.150;6.370;2022-09-16T06:37:28;11.00;99.90
52509;DHT22;38420;53.150;6.370;2022-09-16T06:39:53;11.30;99.90
52509;DHT22;38420;53.150;6.370;2022-09-16T06:42:19;11.30;99.90
52509;DHT22;38420;53.150;6.370;2022-09-16T06:44:44;11.40;99.90
52509;DHT22;38420;53.150;6.370;2022-09-16T06:47:10;11.50;99.90
52509;DHT22;38420;53.150;6.370;2022-09-16T06:49:35;11.50;99.90
52509;DHT22;38420;53.150;6.370;2022-09-16T06:52:01;11.70;99.90
52509;DHT22;38420;53.150;6.370;2022-09-16T06:54:27;11.70;99.90
52509;DHT22;38420;53.150;6.370;2022-09-16T06:56:52;11.70;99.90
52509;DHT22;38420;53.150;6.370;2022-09-16T06:59:18;11.90;99.90
52509;DHT22;38420;53.150;6.370;2022-09-16T07:01:44;11.80;99.90
52509;DHT22;38420;53.150;6.370;2022-09-16T07:04:10;11.90;99.90
52509;DHT22;38420;53.150;6.370;2022-09-16T07:06:37;11.90;99.90
52509;DHT22;38420;53.150;6.370;2022-09-16T07:09:03;11.90;99.90
52509;DHT22;38420;53.150;6.370;2022-09-16T07:11:29;12.00;99.90
52509;DHT22;38420;53.150;6.370;2022-09-16T07:13:54;12.10;99.90
52509;DHT22;38420;53.150;6.370;2022-09-16T07:16:23;12.30;99.90
52509;DHT22;38420;53.150;6.370;2022-09-16T07:18:53;12.20;99.90
52509;DHT22;38420;53.150;6.370;2022-09-16T07:21:20;12.30;99.90
52509;DHT22;38420;53.150;6.370;2022-09-16T07:23:46;12.50;99.90
52509;DHT22;38420;53.150;6.370;2022-09-16T07:26:15;12.60;99.90
52509;DHT22;38420;53.150;6.370;2022-09-16T07:28:41;12.70;99.90
52509;DHT22;38420;53.150;6.370;2022-09-16T07:31:10;12.80;99.90
52509;DHT22;38420;53.150;6.370;2022-09-16T07:33:40;12.90;99.90
52509;DHT22;38420;53.150;6.370;2022-09-16T07:36:09;13.10;99.90
52509;DHT22;38420;53.150;6.370;2022-09-16T07:38:35;13.30;99.90
52509;DHT22;38420;53.150;6.370;2022-09-16T07:41:05;13.40;99.90
52509;DHT22;38420;53.150;6.370;2022-09-16T07:43:31;13.40;99.90
52509;DHT22;38420;53.150;6.370;2022-09-16T07:45:58;13.50;99.90
52509;DHT22;38420;53.150;6.370;2022-09-16T07:48:24;13.60;99.90
52509;DHT22;38420;53.150;6.370;2022-09-16T07:50:57;13.70;99.90
52509;DHT22;38420;53.150;6.370;2022-09-16T07:53:24;13.90;99.90
52509;DHT22;38420;53.150;6.370;2022-09-16T07:55:55;13.90;99.90
52509;DHT22;38420;53.150;6.370;2022-09-16T07:58:20;13.90;99.90
52509;DHT22;38420;53.150;6.370;2022-09-16T08:00:48;13.80;99.90
52509;DHT22;38420;53.150;6.370;2022-09-16T08:03:14;13.70;99.90
52509;DHT22;38420;53.150;6.370;2022-09-16T08:05:40;13.70;99.90
52509;DHT22;38420;53.150;6.370;2022-09-16T08:08:06;13.70;99.90
52509;DHT22;38420;53.150;6.370;2022-09-16T08:10:31;13.70;99.90
52509;DHT22;38420;53.150;6.370;2022-09-16T08:12:57;13.80;99.90
52509;DHT22;38420;53.150;6.370;2022-09-16T08:15:22;14.00;99.90
52509;DHT22;38420;53.150;6.370;2022-09-16T08:17:48;14.10;99.90
52509;DHT22;38420;53.150;6.370;2022-09-16T08:20:14;14.20;99.90
52509;DHT22;38420;53.150;6.370;2022-09-16T08:22:40;14.70;99.90
52509;DHT22;38420;53.150;6.370;2022-09-16T08:25:06;15.20;99.90
52509;DHT22;38420;53.150;6.370;2022-09-16T08:27:35;16.00;99.90
52509;DHT22;38420;53.150;6.370;2022-09-16T08:30:01;16.60;99.90
52509;DHT22;38420;53.150;6.370;2022-09-16T08:32:26;17.00;99.90
52509;DHT22;38420;53.150;6.370;2022-09-16T08:34:52;17.60;99.90
52509;DHT22;38420;53.150;6.370;2022-09-16T08:37:18;18.00;99.90
52509;DHT22;38420;53.150;6.370;2022-09-16T08:39:45;18.50;99.90
52509;DHT22;38420;53.150;6.370;2022-09-16T08:42:49;18.50;99.90
52509;DHT22;38420;53.150;6.370;2022-09-16T08:50:40;19.10;97.10
52509;DHT22;38420;53.150;6.370;2022-09-16T08:53:16;19.40;96.30
52509;DHT22;38420;53.150;6.370;2022-09-16T08:55:46;19.80;94.80
52509;DHT22;38420;53.150;6.370;2022-09-16T08:58:25;19.80;94.90
52509;DHT22;38420;53.150;6.370;2022-09-16T09:00:55;18.80;94.90
52509;DHT22;38420;53.150;6.370;2022-09-16T09:03:36;17.90;96.80
52509;DHT22;38420;53.150;6.370;2022-09-16T09:11:34;18.80;96.80
52509;DHT22;38420;53.150;6.370;2022-09-16T09:14:19;19.00;96.20
52509;DHT22;38420;53.150;6.370;2022-09-16T09:17:06;19.10;96.20
52509;DHT22;38420;53.150;6.370;2022-09-16T09:28:31;18.00;95.20
52509;DHT22;38420;53.150;6.370;2022-09-16T09:37:34;17.10;99.30
52509;DHT22;38420;53.150;6.370;2022-09-16T09:40:14;16.60;99.20
52509;DHT22;38420;53.150;6.370;2022-09-16T09:42:47;16.50;99.90
52509;DHT22;38420;53.150;6.370;2022-09-16T09:45:22;16.60;99.90
52509;DHT22;38420;53.150;6.370;2022-09-16T09:48:02;16.60;99.90
52509;DHT22;38420;53.150;6.370;2022-09-16T09:50:40;16.60;99.90
52509;DHT22;38420;53.150;6.370;2022-09-16T09:53:19;16.40;99.90
52509;DHT22;38420;53.150;6.370;2022-09-16T09:55:53;16.40;99.90
52509;DHT22;38420;53.150;6.370;2022-09-16T09:58:42;16.30;99.90
52509;DHT22;38420;53.150;6.370;2022-09-16T10:01:09;16.70;99.90
52509;DHT22;38420;53.150;6.370;2022-09-16T10:03:35;16.70;99.90
52509;DHT22;38420;53.150;6.370;2022-09-16T10:06:03;16.60;99.90
52509;DHT22;38420;53.150;6.370;2022-09-16T10:08:42;16.40;99.90
52509;DHT22;38420;53.150;6.370;2022-09-16T10:11:31;16.10;99.90
52509;DHT22;38420;53.150;6.370;2022-09-16T10:13:59;15.90;99.90
52509;DHT22;38420;53.150;6.370;2022-09-16T10:16:28;15.60;99.90
52509;DHT22;38420;53.150;6.370;2022-09-16T10:19:07;15.70;99.90
52509;DHT22;38420;53.150;6.370;2022-09-16T10:21:43;15.90;99.90
52509;DHT22;38420;53.150;6.370;2022-09-16T10:24:34;16.20;99.90
52509;DHT22;38420;53.150;6.370;2022-09-16T10:27:14;16.40;99.90
52509;DHT22;38420;53.150;6.370;2022-09-16T10:29:41;16.40;99.90
52509;DHT22;38420;53.150;6.370;2022-09-16T10:32:14;16.30;99.90
52509;DHT22;38420;53.150;6.370;2022-09-16T10:34:41;16.30;99.90
52509;DHT22;38420;53.150;6.370;2022-09-16T10:39:38;16.40;99.90
52509;DHT22;38420;53.150;6.370;2022-09-16T10:42:15;16.30;99.90
52509;DHT22;38420;53.150;6.370;2022-09-16T10:44:42;15.80;99.90
52509;DHT22;38420;53.150;6.370;2022-09-16T10:47:30;15.60;99.90
52509;DHT22;38420;53.150;6.370;2022-09-16T10:50:01;15.50;99.90
52509;DHT22;38420;53.150;6.370;2022-09-16T10:52:31;15.80;99.90
52509;DHT22;38420;53.150;6.370;2022-09-16T10:55:26;15.90;99.90
52509;DHT22;38420;53.150;6.370;2022-09-16T10:57:53;16.20;99.90
52509;DHT22;38420;53.150;6.370;2022-09-16T11:00:29;16.30;99.90
52509;DHT22;38420;53.150;6.370;2022-09-16T11:09:31;16.60;99.90
52509;DHT22;38420;53.150;6.370;2022-09-16T11:15:03;16.60;99.90
52509;DHT22;38420;53.150;6.370;2022-09-16T11:17:45;16.40;99.90
52509;DHT22;38420;53.150;6.370;2022-09-16T11:28:33;16.30;99.90
52509;DHT22;38420;53.150;6.370;2022-09-16T11:38:59;16.10;99.70
52509;DHT22;38420;53.150;6.370;2022-09-16T11:41:40;16.00;99.90
52509;DHT22;38420;53.150;6.370;2022-09-16T11:55:29;16.50;99.90
52509;DHT22;38420;53.150;6.370;2022-09-16T11:58:05;16.40;99.50
52509;DHT22;38420;53.150;6.370;2022-09-16T12:00:36;16.40;99.90
52509;DHT22;38420;53.150;6.370;2022-09-16T12:03:27;16.40;99.90
52509;DHT22;38420;53.150;6.370;2022-09-16T12:05:55;16.40;99.90
52509;DHT22;38420;53.150;6.370;2022-09-16T12:08:33;16.40;99.60
52509;DHT22;38420;53.150;6.370;2022-09-16T12:11:17;16.50;99.90
52509;DHT22;38420;53.150;6.370;2022-09-16T12:13:57;16.70;99.60
52509;DHT22;38420;53.150;6.370;2022-09-16T12:16:45;16.80;99.10
52509;DHT22;38420;53.150;6.370;2022-09-16T12:19:22;17.00;99.80
52509;DHT22;38420;53.150;6.370;2022-09-16T12:22:08;16.90;99.80
52509;DHT22;38420;53.150;6.370;2022-09-16T12:24:43;16.60;99.90
52509;DHT22;38420;53.150;6.370;2022-09-16T12:27:33;16.30;99.90
52509;DHT22;38420;53.150;6.370;2022-09-16T12:30:15;16.10;99.90
52509;DHT22;38420;53.150;6.370;2022-09-16T12:35:40;16.20;99.90
52509;DHT22;38420;53.150;6.370;2022-09-16T12:38:17;16.10;99.90
52509;DHT22;38420;53.150;6.370;2022-09-16T12:41:05;16.20;99.90
52509;DHT22;38420;53.150;6.370;2022-09-16T12:43:54;16.30;99.90
52509;DHT22;38420;53.150;6.370;2022-09-16T12:52:13;16.20;99.90
52509;DHT22;38420;53.150;6.370;2022-09-16T13:00:03;16.10;99.90
52509;DHT22;38420;53.150;6.370;2022-09-16T13:02:45;16.00;99.90
52509;DHT22;38420;53.150;6.370;2022-09-16T13:05:24;16.00;99.90
52509;DHT22;38420;53.150;6.370;2022-09-16T13:07:55;15.90;99.90
52509;DHT22;38420;53.150;6.370;2022-09-16T13:10:31;15.90;99.90
52509;DHT22;38420;53.150;6.370;2022-09-16T13:13:00;15.80;99.90
52509;DHT22;38420;53.150;6.370;2022-09-16T13:15:35;15.80;99.90
52509;DHT22;38420;53.150;6.370;2022-09-16T13:20:47;15.70;99.90
52509;DHT22;38420;53.150;6.370;2022-09-16T13:23:21;15.60;99.90
52509;DHT22;38420;53.150;6.370;2022-09-16T13:26:00;15.60;99.90
52509;DHT22;38420;53.150;6.370;2022-09-16T13:33:39;15.00;99.90
52509;DHT22;38420;53.150;6.370;2022-09-16T13:41:37;14.30;99.90
52509;DHT22;38420;53.150;6.370;2022-09-16T13:44:26;14.20;99.90
52509;DHT22;38420;53.150;6.370;2022-09-16T13:46:52;14.00;99.90
52509;DHT22;38420;53.150;6.370;2022-09-16T13:49:23;13.80;99.90
52509;DHT22;38420;53.150;6.370;2022-09-16T13:51:50;13.60;99.90
52509;DHT22;38420;53.150;6.370;2022-09-16T13:54:25;13.60;99.90
52509;DHT22;38420;53.150;6.370;2022-09-16T13:57:08;13.40;99.90
52509;DHT22;38420;53.150;6.370;2022-09-16T14:05:39;13.40;99.90
52509;DHT22;38420;53.150;6.370;2022-09-16T14:08:48;13.10;99.90
52509;DHT22;38420;53.150;6.370;2022-09-16T14:14:22;13.30;99.90
52509;DHT22;38420;53.150;6.370;2022-09-16T14:16:49;13.40;99.90
52509;DHT22;38420;53.150;6.370;2022-09-16T14:21:45;13.70;99.90
52509;DHT22;38420;53.150;6.370;2022-09-16T14:26:52;14.00;99.90
52509;DHT22;38420;53.150;6.370;2022-09-16T14:29:19;14.20;99.90
52509;DHT22;38420;53.150;6.370;2022-09-16T14:31:45;14.20;99.90
52509;DHT22;38420;53.150;6.370;2022-09-16T14:34:17;14.30;99.90
52509;DHT22;38420;53.150;6.370;2022-09-16T14:36:46;14.30;99.90
52509;DHT22;38420;53.150;6.370;2022-09-16T14:39:14;14.30;99.90
52509;DHT22;38420;53.150;6.370;2022-09-16T14:41:56;14.30;99.90
52509;DHT22;38420;53.150;6.370;2022-09-16T14:44:41;14.30;99.90
52509;DHT22;38420;53.150;6.370;2022-09-16T14:50:06;14.20;99.90
52509;DHT22;38420;53.150;6.370;2022-09-16T14:52:33;13.90;99.90
52509;DHT22;38420;53.150;6.370;2022-09-16T14:55:00;13.80;99.90
52509;DHT22;38420;53.150;6.370;2022-09-16T14:57:29;13.70;99.90
52509;DHT22;38420;53.150;6.370;2022-09-16T14:59:56;13.70;99.90
52509;DHT22;38420;53.150;6.370;2022-09-16T15:02:51;13.80;99.90
52509;DHT22;38420;53.150;6.370;2022-09-16T15:08:08;13.70;99.90
52509;DHT22;38420;53.150;6.370;2022-09-16T15:10:35;13.70;99.90
52509;DHT22;38420;53.150;6.370;2022-09-16T15:13:04;13.60;99.90
52509;DHT22;38420;53.150;6.370;2022-09-16T15:15:34;13.60;99.90
52509;DHT22;38420;53.150;6.370;2022-09-16T15:18:06;13.60;99.90
52509;DHT22;38420;53.150;6.370;2022-09-16T15:20:35;13.50;99.90
52509;DHT22;38420;53.150;6.370;2022-09-16T15:23:02;13.50;99.90
52509;DHT22;38420;53.150;6.370;2022-09-16T15:25:31;13.40;99.90
52509;DHT22;38420;53.150;6.370;2022-09-16T15:28:13;13.20;99.90
52509;DHT22;38420;53.150;6.370;2022-09-16T15:30:45;13.10;99.90
52509;DHT22;38420;53.150;6.370;2022-09-16T15:35:56;13.50;99.90
52509;DHT22;38420;53.150;6.370;2022-09-16T15:38:22;13.00;99.90
52509;DHT22;38420;53.150;6.370;2022-09-16T15:41:00;12.80;99.90
52509;DHT22;38420;53.150;6.370;2022-09-16T15:43:28;12.80;99.90
52509;DHT22;38420;53.150;6.370;2022-09-16T15:45:59;13.00;99.90
52509;DHT22;38420;53.150;6.370;2022-09-16T15:48:30;12.90;99.90
52509;DHT22;38420;53.150;6.370;2022-09-16T15:51:00;13.00;99.90
52509;DHT22;38420;53.150;6.370;2022-09-16T16:06:09;12.80;99.90
52509;DHT22;38420;53.150;6.370;2022-09-16T16:08:42;12.70;99.90
52509;DHT22;38420;53.150;6.370;2022-09-16T16:11:13;13.00;99.90
52509;DHT22;38420;53.150;6.370;2022-09-16T16:13:39;13.10;99.90
52509;DHT22;38420;53.150;6.370;2022-09-16T16:16:06;13.30;99.90
52509;DHT22;38420;53.150;6.370;2022-09-16T16:18:33;13.20;99.90
52509;DHT22;38420;53.150;6.370;2022-09-16T16:21:20;13.30;99.90
52509;DHT22;38420;53.150;6.370;2022-09-16T16:23:45;13.40;99.90
52509;DHT22;38420;53.150;6.370;2022-09-16T16:26:11;13.30;99.90
52509;DHT22;38420;53.150;6.370;2022-09-16T16:28:37;13.50;99.90
52509;DHT22;38420;53.150;6.370;2022-09-16T16:31:08;13.50;99.90
52509;DHT22;38420;53.150;6.370;2022-09-16T16:33:33;13.20;99.90
52509;DHT22;38420;53.150;6.370;2022-09-16T16:35:59;13.20;99.90
52509;DHT22;38420;53.150;6.370;2022-09-16T16:38:25;13.20;99.90
52509;DHT22;38420;53.150;6.370;2022-09-16T16:40:50;13.20;99.90
52509;DHT22;38420;53.150;6.370;2022-09-16T16:43:16;13.20;99.90
52509;DHT22;38420;53.150;6.370;2022-09-16T16:45:42;13.10;99.90
52509;DHT22;38420;53.150;6.370;2022-09-16T16:48:07;12.70;99.90
52509;DHT22;38420;53.150;6.370;2022-09-16T16:50:35;12.70;99.90
52509;DHT22;38420;53.150;6.370;2022-09-16T16:53:00;12.60;99.90
52509;DHT22;38420;53.150;6.370;2022-09-16T16:55:26;12.50;99.90
52509;DHT22;38420;53.150;6.370;2022-09-16T16:57:51;12.20;99.90
52509;DHT22;38420;53.150;6.370;2022-09-16T17:00:17;12.20;99.90
52509;DHT22;38420;53.150;6.370;2022-09-16T17:02:43;12.20;99.90
52509;DHT22;38420;53.150;6.370;2022-09-16T17:05:09;12.30;99.90
52509;DHT22;38420;53.150;6.370;2022-09-16T17:07:34;12.50;99.90
52509;DHT22;38420;53.150;6.370;2022-09-16T17:10:00;12.50;99.90
52509;DHT22;38420;53.150;6.370;2022-09-16T17:12:26;12.40;99.90
52509;DHT22;38420;53.150;6.370;2022-09-16T17:14:51;12.50;99.90
52509;DHT22;38420;53.150;6.370;2022-09-16T17:17:17;12.70;99.90
52509;DHT22;38420;53.150;6.370;2022-09-16T17:19:42;12.70;99.90
52509;DHT22;38420;53.150;6.370;2022-09-16T17:22:08;12.70;99.90
52509;DHT22;38420;53.150;6.370;2022-09-16T17:24:34;12.70;99.90
52509;DHT22;38420;53.150;6.370;2022-09-16T17:26:59;12.90;99.90
52509;DHT22;38420;53.150;6.370;2022-09-16T17:29:25;12.70;99.90
52509;DHT22;38420;53.150;6.370;2022-09-16T17:31:51;12.90;99.90
52509;DHT22;38420;53.150;6.370;2022-09-16T17:34:17;12.80;99.90
52509;DHT22;38420;53.150;6.370;2022-09-16T17:36:44;12.60;99.90
52509;DHT22;38420;53.150;6.370;2022-09-16T17:39:17;12.90;99.90
52509;DHT22;38420;53.150;6.370;2022-09-16T17:41:46;12.70;99.90
52509;DHT22;38420;53.150;6.370;2022-09-16T17:44:14;12.40;99.90
52509;DHT22;38420;53.150;6.370;2022-09-16T17:46:41;12.30;99.90
52509;DHT22;38420;53.150;6.370;2022-09-16T17:49:14;12.40;99.90
52509;DHT22;38420;53.150;6.370;2022-09-16T17:51:40;12.30;99.90
52509;DHT22;38420;53.150;6.370;2022-09-16T17:54:06;12.30;99.90
52509;DHT22;38420;53.150;6.370;2022-09-16T17:56:33;12.10;99.90
52509;DHT22;38420;53.150;6.370;2022-09-16T17:58:58;12.30;99.90
52509;DHT22;38420;53.150;6.370;2022-09-16T18:01:25;12.30;99.90
52509;DHT22;38420;53.150;6.370;2022-09-16T18:03:53;12.10;99.90
52509;DHT22;38420;53.150;6.370;2022-09-16T18:06:30;12.10;99.90
52509;DHT22;38420;53.150;6.370;2022-09-16T18:08:58;12.10;99.90
52509;DHT22;38420;53.150;6.370;2022-09-16T18:11:25;12.40;99.90
52509;DHT22;38420;53.150;6.370;2022-09-16T18:13:55;12.10;99.90
52509;DHT22;38420;53.150;6.370;2022-09-16T18:16:22;12.20;99.90
52509;DHT22;38420;53.150;6.370;2022-09-16T18:18:57;12.20;99.90
52509;DHT22;38420;53.150;6.370;2022-09-16T18:21:24;12.00;99.90
52509;DHT22;38420;53.150;6.370;2022-09-16T18:23:58;12.40;99.90
52509;DHT22;38420;53.150;6.370;2022-09-16T18:26:25;12.10;99.90
52509;DHT22;38420;53.150;6.370;2022-09-16T18:28:51;12.40;99.90
52509;DHT22;38420;53.150;6.370;2022-09-16T18:31:20;12.40;99.90
52509;DHT22;38420;53.150;6.370;2022-09-16T18:33:49;12.20;99.90
52509;DHT22;38420;53.150;6.370;2022-09-16T18:36:15;12.10;99.90
52509;DHT22;38420;53.150;6.370;2022-09-16T18:38:43;12.10;99.90
52509;DHT22;38420;53.150;6.370;2022-09-16T18:41:10;12.10;99.90
52509;DHT22;38420;53.150;6.370;2022-09-16T18:43:38;12.30;99.90